Time;durP1;ratioP1;P1;durP2;ratioP2;P2;SDS_P1;SDS_P2;PMS_P1;PMS_P2;Temp;Humidity;BMP_temperature;BMP_pressure;BME280_temperature;BME280_humidity;BME280_pressure;Samples;Min_cycle;Max_cycle;Signal;HPM_P1;HPM_P2
2022/03/15 00:02:14;;;;;;;;;11.00;10.00;;;;;;;;5057467;28;47361;-82
2022/03/15 00:04:39;;;;;;;;;11.00;11.00;;;;;;;;5056454;28;45821;-81
2022/03/15 00:07:12;;;;;;;;;5.33;5.00;;;;;;;;5057225;28;45310;-82
2022/03/15 00:09:37;;;;;;;;;8.00;8.00;;;;;;;;5059209;28;45242;-82
2022/03/15 00:12:05;;;;;;;;;9.00;9.00;;;;;;;;5059236;28;45604;-82
2022/03/15 00:14:30;;;;;;;;;8.33;7.33;;;;;;;;5061408;28;45342;-82
2022/03/15 00:16:55;;;;;;;;;9.00;8.00;;;;;;;;5082791;28;45322;-82
2022/03/15 00:19:21;;;;;;;;;6.67;6.00;;;;;;;;5081383;28;45992;-82
2022/03/15 00:21:46;;;;;;;;;12.00;9.33;;;;;;;;5081546;28;46152;-82
2022/03/15 00:24:11;;;;;;;;;8.33;7.67;;;;;;;;5080261;28;45540;-82
2022/03/15 00:26:37;;;;;;;;;11.00;10.33;;;;;;;;5081696;28;45339;-81
2022/03/15 00:29:02;;;;;;;;;10.33;10.00;;;;;;;;5082640;27;45364;-82
2022/03/15 00:31:27;;;;;;;;;8.67;7.00;;;;;;;;5083190;28;45409;-82
2022/03/15 00:33:52;;;;;;;;;10.00;9.00;;;;;;;;5081321;28;45322;-83
2022/03/15 00:36:18;;;;;;;;;7.67;7.67;;;;;;;;5083059;28;45586;-82
2022/03/15 00:38:43;;;;;;;;;9.00;9.00;;;;;;;;5082677;27;45628;-82
2022/03/15 00:41:09;;;;;;;;;11.67;10.00;;;;;;;;5082784;27;46274;-82
2022/03/15 00:43:35;;;;;;;;;9.67;8.00;;;;;;;;5082957;28;45239;-84
2022/03/15 00:46:00;;;;;;;;;9.33;9.33;;;;;;;;5081737;28;45803;-82
2022/03/15 00:48:26;;;;;;;;;8.00;8.00;;;;;;;;5081081;28;46160;-82
2022/03/15 00:50:51;;;;;;;;;9.00;9.00;;;;;;;;5080531;28;47301;-82
2022/03/15 00:53:16;;;;;;;;;8.00;8.00;;;;;;;;5082448;27;45265;-81
2022/03/15 00:55:41;;;;;;;;;6.00;6.00;;;;;;;;5082860;28;45274;-82
2022/03/15 00:58:07;;;;;;;;;8.67;7.00;;;;;;;;5081095;28;46246;-82
2022/03/15 01:00:33;;;;;;;;;6.67;6.67;;;;;;;;5082532;27;45394;-81
2022/03/15 01:02:59;;;;;;;;;7.67;7.33;;;;;;;;5082473;27;45311;-82
2022/03/15 01:05:24;;;;;;;;;6.00;6.00;;;;;;;;5082528;27;45362;-82
2022/03/15 01:07:49;;;;;;;;;6.67;6.67;;;;;;;;5080741;28;46209;-82
2022/03/15 01:10:14;;;;;;;;;7.33;6.67;;;;;;;;5082071;28;45365;-82
2022/03/15 01:12:39;;;;;;;;;8.33;8.33;;;;;;;;5082434;28;45329;-82
2022/03/15 01:15:06;;;;;;;;;7.33;6.67;;;;;;;;5071783;28;45303;-81
2022/03/15 01:17:32;;;;;;;;;6.67;6.00;;;;;;;;5041370;28;45346;-82
2022/03/15 01:19:57;;;;;;;;;9.33;8.33;;;;;;;;5041692;28;45383;-82
2022/03/15 01:22:22;;;;;;;;;9.00;7.00;;;;;;;;5040149;28;45921;-82
2022/03/15 01:24:47;;;;;;;;;7.00;6.67;;;;;;;;5040256;28;45287;-82
2022/03/15 01:27:15;;;;;;;;;9.00;7.67;;;;;;;;5041450;28;45454;-83
2022/03/15 01:29:40;;;;;;;;;9.67;8.00;;;;;;;;5041520;28;46161;-82
2022/03/15 01:32:06;;;;;;;;;7.67;7.67;;;;;;;;5040028;28;45288;-82
2022/03/15 01:34:32;;;;;;;;;6.00;6.00;;;;;;;;5041667;28;45304;-82
2022/03/15 01:36:58;;;;;;;;;9.00;8.33;;;;;;;;5041327;28;45235;-82
2022/03/15 01:39:23;;;;;;;;;8.00;8.00;;;;;;;;5041629;28;45424;-81
2022/03/15 01:41:49;;;;;;;;;8.67;8.00;;;;;;;;5041273;28;45319;-82
2022/03/15 01:44:15;;;;;;;;;7.33;6.00;;;;;;;;5041456;28;45413;-81
2022/03/15 01:46:40;;;;;;;;;8.00;8.00;;;;;;;;5041382;28;45311;-81
2022/03/15 01:49:06;;;;;;;;;6.00;6.00;;;;;;;;5039390;28;47300;-81
2022/03/15 01:51:31;;;;;;;;;8.00;8.00;;;;;;;;5041090;28;45397;-82
2022/03/15 01:53:56;;;;;;;;;10.67;9.00;;;;;;;;5041388;28;45338;-82
2022/03/15 01:56:23;;;;;;;;;8.00;8.00;;;;;;;;5039789;28;46259;-82
2022/03/15 01:58:48;;;;;;;;;10.00;8.00;;;;;;;;5041178;28;45373;-81
2022/03/15 02:01:13;;;;;;;;;7.00;7.00;;;;;;;;5041016;28;45410;-81
2022/03/15 02:03:38;;;;;;;;;7.00;6.00;;;;;;;;5039716;28;45399;-81
2022/03/15 02:06:05;;;;;;;;;8.00;8.00;;;;;;;;5041276;28;45230;-81
2022/03/15 02:08:30;;;;;;;;;10.00;8.67;;;;;;;;5040668;28;46643;-81
2022/03/15 02:10:56;;;;;;;;;7.67;7.67;;;;;;;;5059343;28;45153;-81
2022/03/15 02:13:21;;;;;;;;;10.33;8.67;;;;;;;;5061046;28;45375;-81
2022/03/15 02:15:46;;;;;;;;;10.67;10.33;;;;;;;;5070940;28;45399;-82
2022/03/15 02:18:11;;;;;;;;;8.00;8.00;;;;;;;;5080983;28;46228;-82
2022/03/15 02:20:37;;;;;;;;;7.00;7.00;;;;;;;;5063087;28;45236;-81
2022/03/15 02:23:02;;;;;;;;;7.33;6.33;;;;;;;;5081353;28;45385;-82
2022/03/15 02:25:28;;;;;;;;;9.33;9.33;;;;;;;;5081230;28;45160;-82
2022/03/15 02:27:53;;;;;;;;;9.00;8.67;;;;;;;;5080740;28;45537;-82
2022/03/15 02:30:19;;;;;;;;;9.00;7.67;;;;;;;;5062724;28;45283;-81
2022/03/15 02:32:47;;;;;;;;;9.00;8.33;;;;;;;;5081156;28;45453;-82
2022/03/15 02:35:13;;;;;;;;;10.67;8.33;;;;;;;;5062773;28;46259;-82
2022/03/15 02:37:38;;;;;;;;;9.67;9.67;;;;;;;;5080084;28;46791;-82
2022/03/15 02:40:03;;;;;;;;;7.33;7.33;;;;;;;;5063053;28;45397;-81
2022/03/15 02:42:29;;;;;;;;;9.33;8.67;;;;;;;;5081213;28;45311;-82
2022/03/15 02:44:54;;;;;;;;;8.33;8.33;;;;;;;;5080952;28;45282;-82
2022/03/15 02:47:19;;;;;;;;;9.00;7.67;;;;;;;;5062466;28;47018;-83
2022/03/15 02:49:45;;;;;;;;;9.00;8.00;;;;;;;;5080720;28;45189;-82
2022/03/15 02:52:10;;;;;;;;;8.00;8.00;;;;;;;;5062405;28;45278;-82
2022/03/15 02:54:40;;;;;;;;;10.33;10.33;;;;;;;;5062473;28;47266;-83
2022/03/15 02:57:06;;;;;;;;;10.33;10.33;;;;;;;;5080355;28;45393;-82
2022/03/15 02:59:32;;;;;;;;;11.67;10.33;;;;;;;;5062166;28;45767;-82
2022/03/15 03:01:57;;;;;;;;;12.00;11.00;;;;;;;;5062242;28;45393;-82
2022/03/15 03:04:22;;;;;;;;;9.00;9.00;;;;;;;;5080342;28;45505;-81
2022/03/15 03:06:49;;;;;;;;;10.67;10.67;;;;;;;;5080407;28;46078;-82
2022/03/15 03:09:16;;;;;;;;;10.67;9.67;;;;;;;;5080293;28;45369;-81
2022/03/15 03:11:41;;;;;;;;;11.00;10.67;;;;;;;;5080809;27;45388;-83
2022/03/15 03:14:07;;;;;;;;;10.00;9.33;;;;;;;;5080664;27;45223;-82
2022/03/15 03:16:32;;;;;;;;;9.33;9.33;;;;;;;;5045533;28;47083;-82
2022/03/15 03:19:02;;;;;;;;;10.67;10.67;;;;;;;;5039566;28;45318;-82
2022/03/15 03:21:28;;;;;;;;;9.67;9.67;;;;;;;;5039930;28;45358;-82
2022/03/15 03:23:54;;;;;;;;;10.67;9.00;;;;;;;;5039694;28;45365;-81
2022/03/15 03:26:23;;;;;;;;;9.67;9.67;;;;;;;;5039582;28;45551;-81
2022/03/15 03:28:49;;;;;;;;;11.00;9.00;;;;;;;;5038601;28;45411;-81
2022/03/15 03:31:16;;;;;;;;;11.33;10.67;;;;;;;;5038334;28;45560;-81
2022/03/15 03:33:41;;;;;;;;;9.67;9.67;;;;;;;;5039653;28;45327;-82
2022/03/15 03:36:06;;;;;;;;;9.67;9.67;;;;;;;;5039531;28;45370;-81
2022/03/15 03:38:32;;;;;;;;;14.67;10.67;;;;;;;;5039533;28;45320;-81
2022/03/15 03:40:57;;;;;;;;;10.00;10.00;;;;;;;;5038578;28;45430;-82
2022/03/15 03:43:23;;;;;;;;;11.00;10.00;;;;;;;;5039445;28;45434;-81
2022/03/15 03:45:48;;;;;;;;;10.67;10.67;;;;;;;;5039517;28;45341;-81
2022/03/15 03:48:14;;;;;;;;;9.33;8.67;;;;;;;;5038267;28;45715;-82
2022/03/15 03:50:40;;;;;;;;;11.00;11.00;;;;;;;;5038586;28;45299;-81
2022/03/15 03:53:06;;;;;;;;;12.67;12.67;;;;;;;;5039231;28;45497;-82
2022/03/15 03:55:31;;;;;;;;;12.00;12.00;;;;;;;;5039376;28;45428;-82
2022/03/15 03:57:57;;;;;;;;;9.33;9.33;;;;;;;;5039503;28;45236;-82
2022/03/15 04:00:22;;;;;;;;;10.00;8.00;;;;;;;;5039408;28;45269;-81
2022/03/15 04:02:48;;;;;;;;;11.67;11.00;;;;;;;;5037737;28;46799;-82
2022/03/15 04:05:15;;;;;;;;;8.00;8.00;;;;;;;;5039224;28;46068;-82
2022/03/15 04:07:41;;;;;;;;;10.00;9.67;;;;;;;;5039228;28;45378;-82
2022/03/15 04:10:08;;;;;;;;;12.00;12.00;;;;;;;;5050959;28;45228;-82
2022/03/15 04:12:34;;;;;;;;;11.00;11.00;;;;;;;;5059153;28;45548;-83
2022/03/15 04:15:00;;;;;;;;;10.67;9.33;;;;;;;;5044501;28;46524;-82
2022/03/15 04:17:26;;;;;;;;;9.67;9.33;;;;;;;;5061170;28;45858;-81
2022/03/15 04:19:52;;;;;;;;;8.00;8.00;;;;;;;;5079700;28;45283;-81
2022/03/15 04:22:17;;;;;;;;;11.00;11.00;;;;;;;;5079252;28;45620;-81
2022/03/15 04:24:43;;;;;;;;;13.67;13.67;;;;;;;;5060913;28;47365;-80
2022/03/15 04:27:08;;;;;;;;;10.33;10.33;;;;;;;;5079298;28;45506;-80
2022/03/15 04:29:33;;;;;;;;;11.67;11.00;;;;;;;;5079449;28;45276;-81
2022/03/15 04:31:58;;;;;;;;;11.67;10.67;;;;;;;;5061846;28;46086;-80
2022/03/15 04:34:25;;;;;;;;;13.00;11.33;;;;;;;;5084984;28;45247;-80
2022/03/15 04:36:50;;;;;;;;;13.00;13.00;;;;;;;;5086218;28;45345;-80
2022/03/15 04:39:15;;;;;;;;;10.33;10.33;;;;;;;;5092180;28;45495;-80
2022/03/15 04:41:40;;;;;;;;;14.00;12.00;;;;;;;;5092027;28;45551;-80
2022/03/15 04:44:06;;;;;;;;;9.67;9.67;;;;;;;;5088588;28;45329;-81
2022/03/15 04:46:32;;;;;;;;;13.33;11.00;;;;;;;;5089470;28;45336;-81
2022/03/15 04:48:58;;;;;;;;;9.00;9.00;;;;;;;;5091195;28;45258;-81
2022/03/15 04:51:24;;;;;;;;;10.00;9.33;;;;;;;;5086598;28;45493;-81
2022/03/15 04:53:49;;;;;;;;;9.00;9.00;;;;;;;;5072336;28;48519;-81
2022/03/15 04:56:14;;;;;;;;;10.67;10.67;;;;;;;;5090142;28;45278;-81
2022/03/15 04:58:40;;;;;;;;;12.00;10.67;;;;;;;;5087465;28;45236;-81
2022/03/15 05:01:05;;;;;;;;;10.00;10.00;;;;;;;;5071580;28;46162;-81
2022/03/15 05:03:31;;;;;;;;;10.67;10.67;;;;;;;;5091948;28;45264;-81
2022/03/15 05:05:57;;;;;;;;;9.00;9.00;;;;;;;;5094800;28;45143;-81
2022/03/15 05:08:22;;;;;;;;;10.67;9.00;;;;;;;;5084966;28;45211;-78
2022/03/15 05:13:34;;;;;;;;;12.00;12.00;;;;;;;;5082132;28;45297;-79
2022/03/15 05:15:59;;;;;;;;;9.67;9.33;;;;;;;;5056555;28;45855;-80
2022/03/15 05:18:24;;;;;;;;;10.00;10.00;;;;;;;;5041740;28;45374;-79
2022/03/15 05:20:50;;;;;;;;;9.67;9.33;;;;;;;;5042375;28;45379;-79
2022/03/15 05:23:15;;;;;;;;;8.00;8.00;;;;;;;;5050745;28;47022;-78
2022/03/15 05:25:40;;;;;;;;;14.00;13.00;;;;;;;;5061857;28;45337;-78
2022/03/15 05:28:09;;;;;;;;;13.00;10.67;;;;;;;;5061462;28;45393;-79
2022/03/15 05:30:35;;;;;;;;;9.67;9.00;;;;;;;;5061802;28;45249;-78
2022/03/15 05:33:00;;;;;;;;;10.33;9.67;;;;;;;;5061499;28;45333;-78
2022/03/15 05:35:25;;;;;;;;;10.67;10.00;;;;;;;;5061697;28;45200;-79
2022/03/15 05:37:50;;;;;;;;;10.00;10.00;;;;;;;;5060038;28;45260;-78
2022/03/15 05:40:15;;;;;;;;;14.00;11.33;;;;;;;;5056738;28;46991;-78
2022/03/15 05:42:41;;;;;;;;;11.33;11.33;;;;;;;;5054281;28;45332;-79
2022/03/15 05:45:06;;;;;;;;;8.00;8.00;;;;;;;;5059418;28;45397;-78
2022/03/15 05:47:31;;;;;;;;;8.33;8.33;;;;;;;;5059542;28;45245;-79
2022/03/15 05:49:56;;;;;;;;;12.00;11.00;;;;;;;;5060177;28;45480;-78
2022/03/15 05:52:22;;;;;;;;;9.67;9.67;;;;;;;;5060527;28;45339;-79
2022/03/15 05:54:47;;;;;;;;;10.33;10.33;;;;;;;;5061101;28;45325;-78
2022/03/15 05:57:12;;;;;;;;;13.33;10.33;;;;;;;;5061260;28;45516;-78
2022/03/15 05:59:38;;;;;;;;;8.33;8.33;;;;;;;;5060049;28;45971;-80
2022/03/15 06:02:03;;;;;;;;;13.00;10.00;;;;;;;;5060946;28;45260;-81
2022/03/15 06:04:28;;;;;;;;;10.00;10.00;;;;;;;;5061526;28;45311;-81
2022/03/15 06:06:57;;;;;;;;;8.67;7.00;;;;;;;;5061932;28;45346;-81
2022/03/15 06:09:23;;;;;;;;;9.00;9.00;;;;;;;;5061249;28;45378;-80
2022/03/15 06:11:49;;;;;;;;;11.00;9.67;;;;;;;;5058201;28;48331;-81
2022/03/15 06:14:14;;;;;;;;;13.00;13.00;;;;;;;;5058979;28;45312;-80
2022/03/15 06:16:39;;;;;;;;;10.33;9.33;;;;;;;;5079129;28;45191;-79
2022/03/15 06:19:05;;;;;;;;;9.00;8.67;;;;;;;;5081231;28;45235;-81
2022/03/15 06:21:30;;;;;;;;;9.33;9.33;;;;;;;;5079700;28;47104;-77
2022/03/15 06:23:55;;;;;;;;;13.00;12.00;;;;;;;;5079616;28;45237;-78
2022/03/15 06:26:21;;;;;;;;;17.67;17.67;;;;;;;;5081171;28;45301;-78
2022/03/15 06:28:46;;;;;;;;;14.00;14.00;;;;;;;;5081062;27;45287;-79
2022/03/15 06:31:11;;;;;;;;;11.67;10.00;;;;;;;;5080971;28;45313;-79
2022/03/15 06:33:36;;;;;;;;;11.00;10.00;;;;;;;;5079591;28;45406;-78
2022/03/15 06:36:02;;;;;;;;;5.33;4.33;;;;;;;;5079751;28;45335;-77
2022/03/15 06:38:29;;;;;;;;;9.67;9.67;;;;;;;;5080665;27;45346;-77
2022/03/15 06:40:54;;;;;;;;;8.67;8.67;;;;;;;;5064663;28;46570;-79
2022/03/15 06:43:19;;;;;;;;;9.67;9.33;;;;;;;;5059731;28;45383;-78
2022/03/15 06:45:46;;;;;;;;;13.33;11.33;;;;;;;;5053831;28;45330;-78
2022/03/15 06:48:12;;;;;;;;;13.67;12.67;;;;;;;;5056243;28;46258;-78
2022/03/15 06:50:37;;;;;;;;;9.00;9.00;;;;;;;;5059547;28;46201;-78
2022/03/15 06:53:03;;;;;;;;;14.00;13.00;;;;;;;;5059629;28;45393;-78
2022/03/15 06:55:29;;;;;;;;;13.33;11.67;;;;;;;;5059969;28;45282;-78
2022/03/15 06:57:54;;;;;;;;;13.67;13.67;;;;;;;;5058089;28;46107;-78
2022/03/15 07:00:20;;;;;;;;;16.67;15.33;;;;;;;;5057935;28;45802;-77
2022/03/15 07:02:45;;;;;;;;;14.33;14.33;;;;;;;;5054469;28;45228;-78
2022/03/15 07:05:10;;;;;;;;;10.67;10.67;;;;;;;;5060446;28;45519;-79
2022/03/15 07:07:36;;;;;;;;;17.00;15.00;;;;;;;;5060263;28;45227;-79
2022/03/15 07:10:05;;;;;;;;;14.00;13.00;;;;;;;;5059969;28;45284;-78
2022/03/15 07:12:31;;;;;;;;;16.00;14.00;;;;;;;;5058783;28;45671;-78
2022/03/15 07:14:56;;;;;;;;;15.00;13.33;;;;;;;;5061975;28;45389;-78
2022/03/15 07:17:22;;;;;;;;;12.33;12.33;;;;;;;;5078764;28;45990;-78
2022/03/15 07:19:47;;;;;;;;;18.00;17.00;;;;;;;;5080360;27;45329;-78
2022/03/15 07:22:12;;;;;;;;;15.67;15.33;;;;;;;;5080049;28;45436;-79
2022/03/15 07:24:38;;;;;;;;;17.67;15.00;;;;;;;;5079173;28;45568;-78
2022/03/15 07:27:03;;;;;;;;;14.67;14.67;;;;;;;;5073777;28;47177;-78
2022/03/15 07:29:28;;;;;;;;;19.67;18.67;;;;;;;;5037971;28;45263;-78
2022/03/15 07:31:54;;;;;;;;;18.67;18.33;;;;;;;;5039474;28;45323;-78
2022/03/15 07:34:19;;;;;;;;;19.00;17.00;;;;;;;;5039786;28;45210;-79
2022/03/15 07:36:45;;;;;;;;;18.00;16.33;;;;;;;;5046147;28;45580;-79
2022/03/15 07:39:11;;;;;;;;;18.67;16.33;;;;;;;;5056187;28;46064;-78
2022/03/15 07:41:39;;;;;;;;;21.00;20.00;;;;;;;;5041201;28;45332;-78
2022/03/15 07:44:05;;;;;;;;;18.00;17.00;;;;;;;;5055035;28;45168;-78
2022/03/15 07:46:30;;;;;;;;;18.33;18.33;;;;;;;;5057407;28;46287;-78
2022/03/15 07:48:55;;;;;;;;;18.33;18.33;;;;;;;;5059380;28;45361;-79
2022/03/15 07:51:20;;;;;;;;;21.33;20.33;;;;;;;;5059572;28;45338;-79
2022/03/15 07:53:46;;;;;;;;;17.67;17.33;;;;;;;;5059431;28;45362;-79
2022/03/15 07:56:11;;;;;;;;;16.67;16.67;;;;;;;;5059426;28;45303;-78
2022/03/15 07:58:37;;;;;;;;;17.00;15.67;;;;;;;;5059197;28;45564;-79
2022/03/15 08:01:02;;;;;;;;;19.00;19.00;;;;;;;;5059364;28;45389;-78
2022/03/15 08:03:27;;;;;;;;;17.00;16.00;;;;;;;;5057904;28;45322;-79
2022/03/15 08:05:53;;;;;;;;;16.00;15.33;;;;;;;;5059351;28;45255;-79
2022/03/15 08:08:18;;;;;;;;;18.67;16.00;;;;;;;;5057608;28;48461;-79
2022/03/15 08:10:43;;;;;;;;;16.67;16.67;;;;;;;;5059116;28;45228;-79
2022/03/15 08:13:08;;;;;;;;;18.00;18.00;;;;;;;;5055857;28;45334;-80
2022/03/15 08:15:34;;;;;;;;;20.33;17.67;;;;;;;;5049254;28;46109;-80
2022/03/15 08:17:59;;;;;;;;;16.67;16.00;;;;;;;;5037750;28;48274;-80
2022/03/15 08:20:32;;;;;;;;;21.67;21.33;;;;;;;;5037491;28;45618;-80
2022/03/15 08:22:58;;;;;;;;;18.67;16.67;;;;;;;;5052966;28;45605;-80
2022/03/15 08:25:23;;;;;;;;;17.33;16.67;;;;;;;;5057598;28;46963;-80
2022/03/15 08:27:48;;;;;;;;;20.67;20.00;;;;;;;;5057337;28;48291;-81
2022/03/15 08:30:14;;;;;;;;;26.00;22.00;;;;;;;;5059018;28;45228;-80
2022/03/15 08:32:39;;;;;;;;;20.67;20.67;;;;;;;;5057474;28;45382;-80
2022/03/15 08:35:04;;;;;;;;;19.33;17.00;;;;;;;;5060383;28;45268;-81
2022/03/15 08:37:30;;;;;;;;;19.00;18.67;;;;;;;;5062276;28;47587;-81
2022/03/15 08:39:55;;;;;;;;;17.00;15.33;;;;;;;;5061307;28;45328;-81
2022/03/15 08:42:21;;;;;;;;;18.00;18.00;;;;;;;;5061382;28;45590;-80
2022/03/15 08:44:46;;;;;;;;;19.00;19.00;;;;;;;;5061104;28;47033;-80
2022/03/15 08:47:12;;;;;;;;;18.33;18.33;;;;;;;;5062148;28;45824;-80
2022/03/15 08:49:38;;;;;;;;;20.00;18.67;;;;;;;;5062380;28;45297;-80
2022/03/15 08:52:03;;;;;;;;;23.67;20.67;;;;;;;;5062199;28;45280;-81
2022/03/15 08:54:29;;;;;;;;;22.33;19.33;;;;;;;;5061049;28;45470;-81
2022/03/15 08:56:54;;;;;;;;;20.67;20.67;;;;;;;;5059072;28;47969;-81
2022/03/15 08:59:20;;;;;;;;;20.67;20.33;;;;;;;;5060717;28;45534;-80
2022/03/15 09:01:46;;;;;;;;;22.67;22.00;;;;;;;;5061119;28;45340;-80
2022/03/15 09:04:11;;;;;;;;;18.67;17.33;;;;;;;;5060990;28;47149;-81
2022/03/15 09:06:37;;;;;;;;;23.00;22.33;;;;;;;;5061961;28;45378;-81
2022/03/15 09:09:03;;;;;;;;;23.33;22.33;;;;;;;;5055466;28;45292;-80
2022/03/15 09:11:29;;;;;;;;;21.67;21.00;;;;;;;;5058176;28;45431;-81
2022/03/15 09:13:55;;;;;;;;;22.33;21.00;;;;;;;;5059944;28;47403;-80
2022/03/15 09:16:20;;;;;;;;;24.00;23.33;;;;;;;;5045263;28;47028;-81
2022/03/15 09:18:45;;;;;;;;;22.33;21.67;;;;;;;;5041592;28;45494;-80
2022/03/15 09:21:12;;;;;;;;;20.67;20.67;;;;;;;;5049885;28;45368;-81
2022/03/15 09:23:37;;;;;;;;;23.00;23.00;;;;;;;;5058977;28;45404;-82
2022/03/15 09:26:03;;;;;;;;;23.33;22.00;;;;;;;;5060714;28;45332;-81
2022/03/15 09:28:28;;;;;;;;;21.00;20.33;;;;;;;;5060803;28;45318;-80
2022/03/15 09:30:53;;;;;;;;;21.00;20.00;;;;;;;;5061214;28;45146;-79
2022/03/15 09:33:19;;;;;;;;;25.33;24.33;;;;;;;;5061321;28;45249;-81
2022/03/15 09:35:45;;;;;;;;;23.33;23.00;;;;;;;;5061636;28;45401;-81
2022/03/15 09:38:10;;;;;;;;;24.33;24.33;;;;;;;;5061391;28;45458;-80
2022/03/15 09:40:36;;;;;;;;;24.67;23.00;;;;;;;;5061818;28;45394;-80
2022/03/15 09:43:02;;;;;;;;;26.00;26.00;;;;;;;;5060081;28;45935;-79
2022/03/15 09:45:29;;;;;;;;;24.00;24.00;;;;;;;;5060942;28;45353;-80
2022/03/15 09:47:56;;;;;;;;;23.33;22.33;;;;;;;;5060246;28;45318;-80
2022/03/15 09:50:21;;;;;;;;;22.67;22.67;;;;;;;;5061632;28;45324;-80
2022/03/15 09:52:47;;;;;;;;;23.00;23.00;;;;;;;;5060656;28;45393;-78
2022/03/15 09:55:12;;;;;;;;;24.67;22.00;;;;;;;;5053472;28;45342;-79
2022/03/15 09:57:38;;;;;;;;;22.33;21.67;;;;;;;;5060760;28;45256;-79
2022/03/15 10:00:04;;;;;;;;;30.00;25.67;;;;;;;;5060065;28;45241;-79
2022/03/15 10:02:30;;;;;;;;;27.00;26.67;;;;;;;;5059594;28;46619;-78
2022/03/15 10:04:55;;;;;;;;;25.67;24.00;;;;;;;;5061022;28;45377;-78
2022/03/15 10:07:21;;;;;;;;;28.33;28.00;;;;;;;;5061124;28;45337;-79
2022/03/15 10:09:46;;;;;;;;;23.00;22.00;;;;;;;;5061065;28;45304;-79
2022/03/15 10:12:12;;;;;;;;;23.67;23.67;;;;;;;;5059888;28;47386;-78
2022/03/15 10:14:41;;;;;;;;;31.67;30.33;;;;;;;;5061580;28;45446;-78
2022/03/15 10:17:06;;;;;;;;;28.33;26.33;;;;;;;;5079804;28;45361;-79
2022/03/15 10:19:31;;;;;;;;;28.00;25.67;;;;;;;;5081284;28;45270;-79
2022/03/15 10:21:57;;;;;;;;;26.00;26.00;;;;;;;;5064487;28;45231;-79
2022/03/15 10:24:23;;;;;;;;;30.33;28.00;;;;;;;;5052539;28;48025;-78
2022/03/15 10:26:49;;;;;;;;;30.00;29.00;;;;;;;;5060721;28;45338;-80
2022/03/15 10:29:15;;;;;;;;;30.00;28.00;;;;;;;;5060971;28;45350;-79
2022/03/15 10:31:42;;;;;;;;;27.67;26.67;;;;;;;;5060626;28;45345;-79
2022/03/15 10:34:08;;;;;;;;;36.00;31.67;;;;;;;;5060567;28;46371;-80
2022/03/15 10:36:38;;;;;;;;;24.33;23.67;;;;;;;;5058721;28;46191;-79
2022/03/15 10:39:03;;;;;;;;;25.00;23.67;;;;;;;;5057210;28;45380;-80
2022/03/15 10:41:29;;;;;;;;;26.67;26.67;;;;;;;;5059376;28;45256;-80
2022/03/15 10:43:55;;;;;;;;;36.00;32.00;;;;;;;;5058345;28;47442;-80
2022/03/15 10:46:22;;;;;;;;;26.67;26.33;;;;;;;;5060403;28;45319;-80
2022/03/15 10:48:51;;;;;;;;;29.33;29.00;;;;;;;;5060588;28;45262;-80
2022/03/15 10:51:17;;;;;;;;;34.00;32.00;;;;;;;;5053341;28;45500;-80
2022/03/15 10:53:43;;;;;;;;;25.33;24.00;;;;;;;;5059353;28;45425;-80
2022/03/15 10:56:11;;;;;;;;;23.67;23.67;;;;;;;;5056535;28;45355;-80
2022/03/15 10:58:51;;;;;;;;;25.00;25.00;;;;;;;;5062653;28;45402;-80
2022/03/15 11:01:17;;;;;;;;;28.00;28.00;;;;;;;;5058991;28;47604;-80
2022/03/15 11:03:56;;;;;;;;;33.67;31.33;;;;;;;;5059823;28;45416;-79
2022/03/15 11:06:30;;;;;;;;;33.33;31.67;;;;;;;;5059970;28;45405;-79
2022/03/15 11:08:55;;;;;;;;;26.33;23.67;;;;;;;;5056553;28;45374;-79
2022/03/15 11:11:26;;;;;;;;;26.67;25.33;;;;;;;;5036820;28;45525;-79
2022/03/15 11:13:57;;;;;;;;;28.00;26.67;;;;;;;;5039241;28;45532;-80
2022/03/15 11:16:23;;;;;;;;;27.00;27.00;;;;;;;;5024216;28;45471;-80
2022/03/15 11:18:49;;;;;;;;;29.00;27.33;;;;;;;;5019297;28;45353;-80
2022/03/15 11:21:14;;;;;;;;;36.25;32.00;;;;;;;;5001905;28;46009;-80
2022/03/15 11:23:43;;;;;;;;;30.00;29.67;;;;;;;;5002042;28;46910;-80
2022/03/15 11:26:09;;;;;;;;;31.33;30.33;;;;;;;;5019747;28;45464;-80
2022/03/15 11:28:39;;;;;;;;;30.00;30.00;;;;;;;;5019875;28;45477;-79
2022/03/15 11:31:04;;;;;;;;;32.00;30.33;;;;;;;;5019640;28;45344;-79
2022/03/15 11:33:31;;;;;;;;;30.00;27.67;;;;;;;;5019592;28;45525;-80
2022/03/15 11:35:59;;;;;;;;;56.75;45.50;;;;;;;;5019671;28;45295;-80
2022/03/15 11:38:25;;;;;;;;;53.00;43.00;;;;;;;;5019349;28;45333;-80
2022/03/15 11:40:54;;;;;;;;;33.33;30.67;;;;;;;;5019283;28;45391;-78
2022/03/15 11:43:40;;;;;;;;;28.33;28.33;;;;;;;;5019628;28;46195;-81
2022/03/15 11:46:24;;;;;;;;;33.33;31.67;;;;;;;;5036542;28;45169;-81
2022/03/15 11:48:58;;;;;;;;;36.75;33.00;;;;;;;;5036863;28;45299;-80
2022/03/15 11:51:26;;;;;;;;;72.75;62.00;;;;;;;;5038694;28;45364;-79
2022/03/15 11:54:10;;;;;;;;;62.25;50.00;;;;;;;;5030404;28;46346;-81
2022/03/15 11:56:43;;;;;;;;;48.50;39.75;;;;;;;;5038515;28;45324;-79
2022/03/15 11:59:08;;;;;;;;;44.75;37.00;;;;;;;;5038686;28;45433;-80
2022/03/15 12:01:47;;;;;;;;;39.50;34.75;;;;;;;;5016925;28;46213;-79
2022/03/15 12:04:13;;;;;;;;;32.67;29.67;;;;;;;;5014711;28;47659;-79
2022/03/15 12:06:48;;;;;;;;;32.00;29.33;;;;;;;;5035413;28;45344;-79
2022/03/15 12:09:13;;;;;;;;;31.67;30.00;;;;;;;;5041952;28;45478;-79
2022/03/15 12:11:40;;;;;;;;;33.33;31.33;;;;;;;;5058431;28;45493;-79
2022/03/15 12:14:09;;;;;;;;;36.33;32.00;;;;;;;;5057606;28;45459;-79
2022/03/15 12:16:36;;;;;;;;;35.67;32.00;;;;;;;;5033131;28;45372;-79
2022/03/15 12:19:10;;;;;;;;;36.33;31.00;;;;;;;;5040062;28;45402;-79
2022/03/15 12:21:48;;;;;;;;;39.33;32.00;;;;;;;;5059002;28;45180;-79
2022/03/15 12:24:16;;;;;;;;;40.00;34.00;;;;;;;;5039319;28;47251;-80
2022/03/15 12:26:44;;;;;;;;;36.50;32.75;;;;;;;;5058964;28;45387;-81
2022/03/15 12:29:14;;;;;;;;;33.00;31.67;;;;;;;;5052871;28;45355;-80
2022/03/15 12:31:39;;;;;;;;;37.25;33.75;;;;;;;;5061100;28;45204;-77
2022/03/15 12:34:08;;;;;;;;;36.50;33.50;;;;;;;;5044026;28;46961;-77
2022/03/15 12:36:45;;;;;;;;;32.33;29.67;;;;;;;;5062218;28;45382;-76
2022/03/15 12:39:11;;;;;;;;;34.33;30.67;;;;;;;;5061564;28;45266;-78
2022/03/15 12:41:37;;;;;;;;;33.00;29.67;;;;;;;;5063646;28;45243;-77
2022/03/15 12:44:02;;;;;;;;;29.67;28.00;;;;;;;;5064992;28;45628;-77
2022/03/15 12:46:30;;;;;;;;;29.33;27.00;;;;;;;;5060974;28;45345;-77
2022/03/15 12:48:55;;;;;;;;;36.00;31.33;;;;;;;;5035125;28;45425;-76
2022/03/15 12:51:21;;;;;;;;;30.33;29.00;;;;;;;;5060150;28;45451;-77
2022/03/15 12:53:48;;;;;;;;;36.00;33.00;;;;;;;;5060447;28;46190;-77
2022/03/15 12:56:14;;;;;;;;;37.00;32.00;;;;;;;;5060326;28;45391;-76
2022/03/15 12:58:40;;;;;;;;;33.67;30.00;;;;;;;;5038093;28;45388;-77
2022/03/15 13:01:09;;;;;;;;;30.33;28.67;;;;;;;;5057544;28;45345;-76
2022/03/15 13:03:35;;;;;;;;;31.33;30.00;;;;;;;;5057693;28;45335;-76
2022/03/15 13:06:01;;;;;;;;;33.00;31.00;;;;;;;;5042056;28;45480;-77
2022/03/15 13:08:26;;;;;;;;;32.67;31.00;;;;;;;;5040039;28;45706;-76
2022/03/15 13:10:52;;;;;;;;;33.33;31.33;;;;;;;;5041112;28;47340;-76
2022/03/15 13:13:29;;;;;;;;;34.00;30.33;;;;;;;;5058215;28;45446;-76
2022/03/15 13:15:56;;;;;;;;;34.33;32.00;;;;;;;;5050263;28;45373;-76
2022/03/15 13:18:23;;;;;;;;;41.00;32.00;;;;;;;;5058151;28;45339;-75
2022/03/15 13:20:49;;;;;;;;;34.33;31.67;;;;;;;;5057850;28;45286;-76
2022/03/15 13:23:16;;;;;;;;;30.33;29.33;;;;;;;;5036471;28;46468;-75
2022/03/15 13:25:43;;;;;;;;;35.67;31.33;;;;;;;;5054443;28;45270;-76
2022/03/15 13:28:37;;;;;;;;;31.00;29.33;;;;;;;;5051720;28;45408;-76
2022/03/15 13:31:07;;;;;;;;;34.67;30.33;;;;;;;;5028576;28;45996;-80
2022/03/15 13:33:39;;;;;;;;;31.00;29.00;;;;;;;;5051875;28;47210;-80
2022/03/15 13:36:06;;;;;;;;;34.67;30.67;;;;;;;;5055324;28;45342;-80
2022/03/15 13:38:34;;;;;;;;;29.33;29.00;;;;;;;;5035134;28;45679;-80
2022/03/15 13:40:59;;;;;;;;;25.33;24.67;;;;;;;;5051919;28;45462;-80
2022/03/15 13:43:27;;;;;;;;;27.33;25.67;;;;;;;;5051087;28;45540;-80
2022/03/15 13:45:54;;;;;;;;;23.33;23.33;;;;;;;;5049488;28;45614;-80
2022/03/15 13:48:26;;;;;;;;;24.00;24.00;;;;;;;;5050759;28;45371;-80
2022/03/15 13:50:58;;;;;;;;;29.00;27.33;;;;;;;;5030477;28;46082;-80
2022/03/15 13:53:24;;;;;;;;;24.00;24.00;;;;;;;;5049094;28;45348;-80
2022/03/15 13:55:51;;;;;;;;;24.67;21.67;;;;;;;;5046354;28;45399;-80
2022/03/15 13:58:24;;;;;;;;;22.67;22.33;;;;;;;;5031711;28;45360;-80
2022/03/15 14:00:59;;;;;;;;;26.33;23.00;;;;;;;;5051600;28;45362;-79
2022/03/15 14:03:27;;;;;;;;;26.00;22.67;;;;;;;;5050450;28;45288;-80
2022/03/15 14:05:59;;;;;;;;;23.00;22.00;;;;;;;;5051223;28;45364;-80
2022/03/15 14:08:24;;;;;;;;;23.33;23.33;;;;;;;;5049971;28;45482;-79
2022/03/15 14:10:50;;;;;;;;;22.00;22.00;;;;;;;;5050851;28;45600;-80
2022/03/15 14:13:17;;;;;;;;;26.33;25.67;;;;;;;;5051244;28;46057;-80
2022/03/15 14:15:45;;;;;;;;;20.00;16.67;;;;;;;;5046465;28;45630;-80
2022/03/15 14:18:20;;;;;;;;;20.67;20.33;;;;;;;;5069236;28;45285;-79
2022/03/15 14:20:46;;;;;;;;;18.67;18.67;;;;;;;;5069824;28;45280;-79
2022/03/15 14:23:14;;;;;;;;;23.67;22.33;;;;;;;;5069020;28;45347;-79